Time;durP1;ratioP1;P1;durP2;ratioP2;P2;SDS_P1;SDS_P2;PMS_P1;PMS_P2;Temp;Humidity;BMP_temperature;BMP_pressure;BME280_temperature;BME280_humidity;BME280_pressure;Samples;Min_cycle;Max_cycle;Signal;HPM_P1;HPM_P2
2023/03/08 00:01:54;;;;;;;8.50;6.47;;;;;;;;;;5083230;28;20190;-84
2023/03/08 00:04:21;;;;;;;8.30;6.40;;;;;;;;;;5086698;28;20183;-83
2023/03/08 00:06:47;;;;;;;7.27;5.93;;;;;;;;;;5081853;28;20297;-83
2023/03/08 00:09:14;;;;;;;7.80;5.53;;;;;;;;;;5087987;28;20192;-83
2023/03/08 00:11:41;;;;;;;8.20;5.60;;;;;;;;;;5102697;28;20687;-82
2023/03/08 00:14:07;;;;;;;7.33;5.53;;;;;;;;;;5111214;28;20213;-83
2023/03/08 00:16:34;;;;;;;7.53;6.60;;;;;;;;;;5092754;28;20704;-83
2023/03/08 00:19:01;;;;;;;7.97;6.57;;;;;;;;;;5088242;28;20215;-83
2023/03/08 00:21:27;;;;;;;7.33;6.20;;;;;;;;;;5074598;28;20275;-82
2023/03/08 00:23:54;;;;;;;8.43;7.00;;;;;;;;;;5089735;28;20174;-83
2023/03/08 00:26:21;;;;;;;10.30;6.87;;;;;;;;;;5086627;28;20568;-83
2023/03/08 00:28:47;;;;;;;7.60;6.10;;;;;;;;;;5090073;28;20246;-83
2023/03/08 00:31:13;;;;;;;9.13;6.00;;;;;;;;;;5087436;28;20175;-83
2023/03/08 00:33:40;;;;;;;7.00;6.23;;;;;;;;;;5089882;28;20183;-82
2023/03/08 00:36:07;;;;;;;8.13;6.13;;;;;;;;;;5096219;28;20298;-83
2023/03/08 00:38:34;;;;;;;6.17;5.27;;;;;;;;;;5115200;28;20171;-84
2023/03/08 00:41:01;;;;;;;7.33;5.67;;;;;;;;;;5094737;28;20599;-83
2023/03/08 00:43:27;;;;;;;6.93;5.97;;;;;;;;;;5090079;28;20274;-83
2023/03/08 00:45:53;;;;;;;8.77;6.63;;;;;;;;;;5093996;28;20199;-82
2023/03/08 00:48:19;;;;;;;6.67;5.90;;;;;;;;;;5091335;28;20642;-83
2023/03/08 00:50:51;;;;;;;9.07;6.43;;;;;;;;;;5089713;28;20288;-83
2023/03/08 00:53:17;;;;;;;8.47;6.77;;;;;;;;;;5080833;28;20184;-84
2023/03/08 00:55:50;;;;;;;8.40;6.80;;;;;;;;;;5104938;28;20245;-83
2023/03/08 00:58:16;;;;;;;8.40;6.63;;;;;;;;;;5095290;28;20175;-83
2023/03/08 01:00:44;;;;;;;12.23;8.67;;;;;;;;;;5093429;28;20177;-84
2023/03/08 01:03:10;;;;;;;12.37;6.73;;;;;;;;;;5089271;28;20183;-82
2023/03/08 01:05:49;;;;;;;10.17;6.50;;;;;;;;;;5089136;28;20199;-83
2023/03/08 01:08:52;;;;;;;8.50;6.50;;;;;;;;;;5112243;28;20249;-83
2023/03/08 01:11:20;;;;;;;6.87;5.70;;;;;;;;;;5098415;28;20192;-83
2023/03/08 01:13:47;;;;;;;7.30;5.07;;;;;;;;;;5087338;28;20176;-83
2023/03/08 01:16:17;;;;;;;7.73;5.80;;;;;;;;;;5098181;28;20290;-82
2023/03/08 01:18:43;;;;;;;6.83;5.00;;;;;;;;;;5084492;28;20652;-82
2023/03/08 01:21:10;;;;;;;7.97;4.80;;;;;;;;;;5092211;28;20184;-83
2023/03/08 01:23:36;;;;;;;5.43;4.77;;;;;;;;;;5094156;28;20585;-84
2023/03/08 01:26:04;;;;;;;5.83;4.73;;;;;;;;;;5110134;28;20216;-82
2023/03/08 01:28:30;;;;;;;8.17;4.80;;;;;;;;;;5092354;28;21012;-83
2023/03/08 01:31:04;;;;;;;4.63;4.13;;;;;;;;;;5109684;28;20232;-83
2023/03/08 01:33:31;;;;;;;5.77;4.73;;;;;;;;;;5076726;28;20552;-82
2023/03/08 01:35:57;;;;;;;4.47;3.83;;;;;;;;;;5096769;28;20174;-82
2023/03/08 01:38:23;;;;;;;7.50;4.10;;;;;;;;;;5083370;28;20183;-84
2023/03/08 01:40:55;;;;;;;6.17;4.40;;;;;;;;;;5088965;28;20186;-83
2023/03/08 01:43:25;;;;;;;4.47;3.67;;;;;;;;;;5091230;28;20695;-83
2023/03/08 01:46:04;;;;;;;4.60;3.67;;;;;;;;;;5091163;28;20227;-84
2023/03/08 01:48:32;;;;;;;6.60;3.63;;;;;;;;;;5094285;28;20212;-83
2023/03/08 01:51:00;;;;;;;4.37;3.03;;;;;;;;;;5092685;28;20648;-83
2023/03/08 01:53:27;;;;;;;7.03;3.30;;;;;;;;;;5080783;28;20219;-83
2023/03/08 01:55:54;;;;;;;4.20;3.50;;;;;;;;;;5088737;28;20227;-83
2023/03/08 01:58:21;;;;;;;8.23;3.43;;;;;;;;;;5109161;28;20195;-83
2023/03/08 02:00:49;;;;;;;5.60;3.43;;;;;;;;;;5110801;28;20656;-84
2023/03/08 02:03:19;;;;;;;9.10;4.03;;;;;;;;;;5112199;28;20671;-83
2023/03/08 02:05:46;;;;;;;5.13;3.00;;;;;;;;;;5107811;28;20210;-83
2023/03/08 02:08:12;;;;;;;5.67;2.87;;;;;;;;;;5104002;28;20265;-83
2023/03/08 02:10:38;;;;;;;6.97;2.87;;;;;;;;;;5088620;28;20641;-83
2023/03/08 02:13:05;;;;;;;7.00;3.17;;;;;;;;;;5077096;28;20192;-83
2023/03/08 02:15:31;;;;;;;5.73;3.00;;;;;;;;;;5090573;28;20251;-83
2023/03/08 02:17:58;;;;;;;5.13;3.20;;;;;;;;;;5097979;28;20300;-82
2023/03/08 02:20:27;;;;;;;11.10;3.93;;;;;;;;;;5101139;28;20732;-82
2023/03/08 02:22:53;;;;;;;6.63;4.33;;;;;;;;;;5108944;28;20197;-83
2023/03/08 02:25:24;;;;;;;7.00;3.87;;;;;;;;;;5111778;28;20211;-83
2023/03/08 02:27:51;;;;;;;6.97;4.03;;;;;;;;;;5090702;28;20195;-84
2023/03/08 02:30:18;;;;;;;8.33;3.90;;;;;;;;;;5091547;28;20172;-82
2023/03/08 02:32:45;;;;;;;8.27;3.33;;;;;;;;;;5092185;28;20599;-83
2023/03/08 02:35:11;;;;;;;7.20;2.97;;;;;;;;;;5110584;28;20251;-84
2023/03/08 02:37:39;;;;;;;3.67;2.97;;;;;;;;;;5106772;28;20539;-83
2023/03/08 02:40:06;;;;;;;6.80;3.47;;;;;;;;;;5091285;28;20579;-82
2023/03/08 02:42:32;;;;;;;6.20;3.10;;;;;;;;;;5079274;28;20200;-84
2023/03/08 02:44:57;;;;;;;4.53;2.90;;;;;;;;;;5111513;28;20619;-84
2023/03/08 02:47:24;;;;;;;5.40;3.37;;;;;;;;;;5092870;28;20184;-82
2023/03/08 02:49:51;;;;;;;8.17;3.57;;;;;;;;;;5109639;28;20191;-83
2023/03/08 02:52:18;;;;;;;8.17;4.00;;;;;;;;;;5092696;28;20716;-84
2023/03/08 02:54:44;;;;;;;8.97;3.33;;;;;;;;;;5107576;28;20236;-82
2023/03/08 02:57:11;;;;;;;9.23;3.67;;;;;;;;;;5083689;28;20187;-83
2023/03/08 02:59:38;;;;;;;7.90;3.50;;;;;;;;;;5090389;28;20195;-83
2023/03/08 03:02:05;;;;;;;7.60;4.00;;;;;;;;;;5092623;28;20731;-82
2023/03/08 03:04:40;;;;;;;7.97;4.03;;;;;;;;;;5088457;28;20180;-83
2023/03/08 03:07:06;;;;;;;5.57;3.17;;;;;;;;;;5081264;28;20571;-84
2023/03/08 03:09:34;;;;;;;7.53;3.10;;;;;;;;;;5111588;28;20258;-82
2023/03/08 03:12:00;;;;;;;4.33;3.30;;;;;;;;;;5092544;28;20191;-83
2023/03/08 03:14:27;;;;;;;3.00;2.70;;;;;;;;;;5101591;28;20239;-83
2023/03/08 03:16:53;;;;;;;5.83;3.03;;;;;;;;;;5090225;28;20226;-83
2023/03/08 03:19:19;;;;;;;4.43;3.23;;;;;;;;;;5091032;28;20187;-84
2023/03/08 03:21:46;;;;;;;3.47;2.97;;;;;;;;;;5094129;28;20175;-82
2023/03/08 03:24:13;;;;;;;4.83;3.50;;;;;;;;;;5093434;28;20179;-84
2023/03/08 03:26:39;;;;;;;6.60;3.37;;;;;;;;;;5087227;28;20740;-84
2023/03/08 03:29:05;;;;;;;7.87;4.00;;;;;;;;;;5092324;28;20587;-84
2023/03/08 03:31:32;;;;;;;6.17;3.97;;;;;;;;;;5091334;28;20575;-84
2023/03/08 03:34:00;;;;;;;5.57;4.20;;;;;;;;;;5091476;28;20200;-84
2023/03/08 03:36:26;;;;;;;7.63;4.00;;;;;;;;;;5079292;28;20182;-82
2023/03/08 03:38:52;;;;;;;5.83;4.37;;;;;;;;;;5090180;28;20622;-83
2023/03/08 03:41:20;;;;;;;5.47;4.40;;;;;;;;;;5108438;28;20176;-83
2023/03/08 03:43:46;;;;;;;7.73;5.30;;;;;;;;;;5081162;28;20180;-84
2023/03/08 03:46:13;;;;;;;7.77;5.13;;;;;;;;;;5105674;28;20722;-84
2023/03/08 03:48:40;;;;;;;8.13;6.00;;;;;;;;;;5109522;28;20589;-83
2023/03/08 03:51:07;;;;;;;9.43;6.23;;;;;;;;;;5088582;28;20187;-84
2023/03/08 03:53:34;;;;;;;8.23;6.53;;;;;;;;;;5090364;28;20579;-84
2023/03/08 03:56:04;;;;;;;9.70;7.00;;;;;;;;;;5092017;28;20187;-84
2023/03/08 03:58:31;;;;;;;11.87;7.47;;;;;;;;;;5091838;28;20195;-84
2023/03/08 04:00:58;;;;;;;12.57;7.73;;;;;;;;;;5090879;28;20190;-84
2023/03/08 04:03:24;;;;;;;14.37;7.73;;;;;;;;;;5109310;28;20179;-83
2023/03/08 04:05:50;;;;;;;9.40;8.43;;;;;;;;;;5089887;28;20288;-85
2023/03/08 04:08:17;;;;;;;9.97;8.50;;;;;;;;;;5089640;28;20224;-83
2023/03/08 04:10:43;;;;;;;10.60;8.37;;;;;;;;;;5090395;28;20271;-83
2023/03/08 04:13:13;;;;;;;12.13;9.10;;;;;;;;;;5081875;28;20180;-84
2023/03/08 04:15:39;;;;;;;12.80;9.00;;;;;;;;;;5088293;28;20219;-83
2023/03/08 04:18:06;;;;;;;12.57;9.90;;;;;;;;;;5109454;28;20183;-84
2023/03/08 04:20:34;;;;;;;13.53;9.57;;;;;;;;;;5089451;28;20637;-85
2023/03/08 04:23:00;;;;;;;12.30;10.07;;;;;;;;;;5086303;28;20176;-84
2023/03/08 04:25:27;;;;;;;15.97;9.93;;;;;;;;;;5085212;28;20965;-83
2023/03/08 04:27:54;;;;;;;14.67;10.83;;;;;;;;;;5084708;28;20689;-83
2023/03/08 04:30:21;;;;;;;13.03;10.93;;;;;;;;;;5088410;28;20175;-83
2023/03/08 04:32:53;;;;;;;13.33;11.50;;;;;;;;;;5091580;28;20192;-82
2023/03/08 04:35:21;;;;;;;15.30;11.63;;;;;;;;;;5103684;28;20187;-84
2023/03/08 04:37:47;;;;;;;14.93;11.80;;;;;;;;;;5083955;28;20207;-84
2023/03/08 04:40:13;;;;;;;14.07;11.67;;;;;;;;;;5079687;28;20544;-83
2023/03/08 04:42:40;;;;;;;14.33;12.07;;;;;;;;;;5091918;28;20178;-84
2023/03/08 04:45:06;;;;;;;14.80;12.40;;;;;;;;;;5107278;28;20195;-84
2023/03/08 04:47:32;;;;;;;15.53;11.83;;;;;;;;;;5088179;28;20225;-84
2023/03/08 04:49:58;;;;;;;14.67;11.23;;;;;;;;;;5088698;28;20188;-82
2023/03/08 04:52:24;;;;;;;15.30;12.00;;;;;;;;;;5089793;28;20667;-83
2023/03/08 04:54:57;;;;;;;17.77;12.63;;;;;;;;;;5093269;28;20229;-83
2023/03/08 04:57:23;;;;;;;14.83;12.47;;;;;;;;;;5087076;28;20179;-84
2023/03/08 04:59:50;;;;;;;14.17;12.00;;;;;;;;;;5088389;28;20187;-84
2023/03/08 05:02:17;;;;;;;18.63;12.37;;;;;;;;;;5091257;28;20190;-83
2023/03/08 05:04:43;;;;;;;14.87;12.40;;;;;;;;;;5090501;28;20240;-83
2023/03/08 05:07:09;;;;;;;18.70;13.80;;;;;;;;;;5090397;28;20207;-83
2023/03/08 05:09:36;;;;;;;15.70;12.73;;;;;;;;;;5091107;28;20649;-83
2023/03/08 05:12:04;;;;;;;20.80;13.30;;;;;;;;;;5083535;28;20183;-84
2023/03/08 05:14:31;;;;;;;16.73;14.07;;;;;;;;;;5089415;28;20736;-83
2023/03/08 05:16:57;;;;;;;16.77;13.33;;;;;;;;;;5088516;28;20278;-83
2023/03/08 05:19:24;;;;;;;21.03;13.57;;;;;;;;;;5078284;28;20215;-83
2023/03/08 05:21:50;;;;;;;16.53;12.80;;;;;;;;;;5095584;28;20187;-83
2023/03/08 05:24:17;;;;;;;21.53;14.20;;;;;;;;;;5091499;28;20183;-83
2023/03/08 05:26:43;;;;;;;17.37;13.67;;;;;;;;;;5111095;28;20199;-84
2023/03/08 05:29:09;;;;;;;15.43;13.50;;;;;;;;;;5126413;28;20179;-82
2023/03/08 05:31:38;;;;;;;14.40;12.30;;;;;;;;;;5105729;28;20275;-84
2023/03/08 05:34:07;;;;;;;18.03;14.17;;;;;;;;;;5093193;28;20172;-84
2023/03/08 05:36:33;;;;;;;14.70;12.47;;;;;;;;;;5100412;28;20330;-83
2023/03/08 05:38:59;;;;;;;17.90;13.53;;;;;;;;;;5087861;28;20186;-84
2023/03/08 05:41:25;;;;;;;14.87;13.23;;;;;;;;;;5089918;28;20820;-84
2023/03/08 05:43:51;;;;;;;15.13;13.20;;;;;;;;;;5079805;28;20197;-83
2023/03/08 05:46:19;;;;;;;17.77;12.83;;;;;;;;;;5092747;28;20559;-83
2023/03/08 05:48:46;;;;;;;17.17;13.97;;;;;;;;;;5091913;28;20191;-84
2023/03/08 05:51:13;;;;;;;18.73;14.73;;;;;;;;;;5090781;28;20662;-84
2023/03/08 05:53:40;;;;;;;15.00;12.77;;;;;;;;;;5108768;28;20195;-84
2023/03/08 05:56:10;;;;;;;16.90;13.50;;;;;;;;;;5109887;28;20183;-83
2023/03/08 05:58:36;;;;;;;16.40;13.50;;;;;;;;;;5091720;28;20548;-82
2023/03/08 06:01:16;;;;;;;19.87;13.80;;;;;;;;;;5094648;28;20180;-82
2023/03/08 06:03:43;;;;;;;17.43;13.50;;;;;;;;;;5081631;28;20633;-82
2023/03/08 06:06:09;;;;;;;14.90;13.30;;;;;;;;;;5093881;28;20949;-82
2023/03/08 06:08:36;;;;;;;17.20;13.07;;;;;;;;;;5089133;28;20637;-82
2023/03/08 06:11:02;;;;;;;16.40;13.47;;;;;;;;;;5089117;28;20179;-82
2023/03/08 06:13:28;;;;;;;17.47;13.13;;;;;;;;;;5090750;28;20653;-82
2023/03/08 06:15:58;;;;;;;14.90;11.37;;;;;;;;;;5085473;28;20250;-82
2023/03/08 06:18:24;;;;;;;16.10;13.03;;;;;;;;;;5087903;28;20219;-83
2023/03/08 06:20:56;;;;;;;14.73;11.17;;;;;;;;;;5085415;28;20253;-82
2023/03/08 06:23:24;;;;;;;15.30;12.07;;;;;;;;;;5092768;28;20203;-82
2023/03/08 06:25:50;;;;;;;13.73;11.97;;;;;;;;;;5072676;28;20208;-82
2023/03/08 06:28:16;;;;;;;13.97;11.57;;;;;;;;;;5090841;28;20546;-81
2023/03/08 06:30:42;;;;;;;16.53;10.97;;;;;;;;;;5088826;28;20177;-83
2023/03/08 06:33:08;;;;;;;14.60;11.40;;;;;;;;;;5107355;28;20255;-82
2023/03/08 06:35:37;;;;;;;16.37;11.87;;;;;;;;;;5090257;28;20672;-82
2023/03/08 06:38:04;;;;;;;17.43;10.70;;;;;;;;;;5088060;28;20254;-83
2023/03/08 06:40:30;;;;;;;16.30;10.80;;;;;;;;;;5089459;28;20179;-83
2023/03/08 06:42:56;;;;;;;12.87;10.20;;;;;;;;;;5086380;28;20630;-84
2023/03/08 06:45:22;;;;;;;15.07;9.93;;;;;;;;;;5077097;28;20669;-82
2023/03/08 06:47:49;;;;;;;13.03;10.43;;;;;;;;;;5080964;28;20620;-84
2023/03/08 06:50:16;;;;;;;15.70;10.03;;;;;;;;;;5088497;28;20653;-83
2023/03/08 06:52:42;;;;;;;13.87;9.93;;;;;;;;;;5085594;28;20184;-83
2023/03/08 06:55:08;;;;;;;13.17;9.93;;;;;;;;;;5090681;28;20180;-84
2023/03/08 06:57:35;;;;;;;11.70;10.00;;;;;;;;;;5085977;28;20183;-83
2023/03/08 07:00:03;;;;;;;17.00;10.60;;;;;;;;;;5088314;28;20180;-82
2023/03/08 07:02:29;;;;;;;10.27;9.13;;;;;;;;;;5082878;28;20214;-84
2023/03/08 07:04:55;;;;;;;13.00;10.27;;;;;;;;;;5089627;28;20225;-84
2023/03/08 07:07:21;;;;;;;11.43;9.77;;;;;;;;;;5085033;28;20643;-84
2023/03/08 07:09:48;;;;;;;11.80;9.97;;;;;;;;;;5084447;28;20801;-83
2023/03/08 07:12:16;;;;;;;14.40;9.97;;;;;;;;;;5086329;28;20198;-84
2023/03/08 07:14:43;;;;;;;13.23;9.20;;;;;;;;;;5087362;28;20201;-83
2023/03/08 07:17:09;;;;;;;15.20;10.07;;;;;;;;;;5067485;28;20228;-84
2023/03/08 07:19:35;;;;;;;13.27;9.13;;;;;;;;;;5066502;28;20640;-83
2023/03/08 07:22:01;;;;;;;12.40;9.80;;;;;;;;;;5065555;28;20182;-84
2023/03/08 07:24:27;;;;;;;15.20;9.97;;;;;;;;;;5063247;28;20639;-84
2023/03/08 07:26:53;;;;;;;15.27;10.80;;;;;;;;;;5068767;28;20323;-84
2023/03/08 07:29:19;;;;;;;15.83;9.43;;;;;;;;;;5057936;28;20272;-84
2023/03/08 07:31:46;;;;;;;12.07;9.00;;;;;;;;;;5050798;28;20182;-84
2023/03/08 07:34:12;;;;;;;12.50;9.33;;;;;;;;;;5069392;28;20177;-82
2023/03/08 07:36:39;;;;;;;12.80;8.90;;;;;;;;;;5069355;28;20218;-82
2023/03/08 07:39:05;;;;;;;13.17;9.40;;;;;;;;;;5062867;28;20184;-84
2023/03/08 07:41:34;;;;;;;12.43;9.00;;;;;;;;;;5061719;28;20184;-83
2023/03/08 07:44:01;;;;;;;12.60;9.47;;;;;;;;;;5048297;28;20204;-84
2023/03/08 07:46:27;;;;;;;10.57;9.47;;;;;;;;;;5050432;28;20283;-83
2023/03/08 07:48:53;;;;;;;9.80;8.73;;;;;;;;;;5060667;28;20219;-83
2023/03/08 07:51:19;;;;;;;14.63;9.80;;;;;;;;;;5054613;28;20583;-84
2023/03/08 07:53:45;;;;;;;11.47;8.50;;;;;;;;;;5062494;28;20220;-84
2023/03/08 07:56:11;;;;;;;12.60;8.77;;;;;;;;;;5054514;28;20591;-85
2023/03/08 07:58:38;;;;;;;12.53;9.37;;;;;;;;;;5057738;28;20208;-83
2023/03/08 08:01:08;;;;;;;12.57;9.20;;;;;;;;;;5058718;28;20177;-82
2023/03/08 08:03:36;;;;;;;11.03;8.97;;;;;;;;;;5050674;28;20275;-83
2023/03/08 08:06:02;;;;;;;10.90;8.77;;;;;;;;;;5057156;28;21073;-83
2023/03/08 08:08:29;;;;;;;12.30;9.07;;;;;;;;;;5054916;28;20220;-82
2023/03/08 08:10:55;;;;;;;12.00;9.17;;;;;;;;;;5050542;28;20193;-82
2023/03/08 08:13:21;;;;;;;14.03;9.10;;;;;;;;;;5058461;28;20220;-83
2023/03/08 08:15:47;;;;;;;17.07;9.37;;;;;;;;;;5058667;28;20624;-83
2023/03/08 08:18:14;;;;;;;11.00;9.17;;;;;;;;;;5061579;28;20184;-83
2023/03/08 08:20:40;;;;;;;10.07;8.80;;;;;;;;;;5059515;28;20254;-84
2023/03/08 08:23:06;;;;;;;13.50;9.00;;;;;;;;;;5062228;28;20185;-84
2023/03/08 08:25:32;;;;;;;10.47;8.73;;;;;;;;;;5056553;28;20208;-84
2023/03/08 08:27:58;;;;;;;11.43;8.13;;;;;;;;;;5058934;28;20189;-86
2023/03/08 08:30:24;;;;;;;11.33;8.37;;;;;;;;;;5051712;28;20539;-84
2023/03/08 08:32:51;;;;;;;12.43;8.43;;;;;;;;;;5051637;28;20186;-83
2023/03/08 08:35:17;;;;;;;9.47;8.37;;;;;;;;;;5065977;28;20184;-84
2023/03/08 08:37:43;;;;;;;11.43;8.07;;;;;;;;;;5065568;28;20219;-84
2023/03/08 08:40:10;;;;;;;12.77;8.13;;;;;;;;;;5067339;28;20208;-83
2023/03/08 08:42:36;;;;;;;9.27;7.53;;;;;;;;;;5061177;28;20231;-83
2023/03/08 08:45:02;;;;;;;10.17;7.40;;;;;;;;;;5057928;28;20181;-83
2023/03/08 08:47:29;;;;;;;11.67;7.40;;;;;;;;;;5052428;28;20247;-83
2023/03/08 08:49:55;;;;;;;10.37;6.63;;;;;;;;;;5062278;28;20177;-83
2023/03/08 08:52:21;;;;;;;10.43;6.77;;;;;;;;;;5060496;28;20178;-83
2023/03/08 08:54:47;;;;;;;10.20;7.50;;;;;;;;;;5050078;28;20313;-83
2023/03/08 08:57:14;;;;;;;11.53;7.20;;;;;;;;;;5064440;28;20287;-84
2023/03/08 08:59:40;;;;;;;10.83;7.37;;;;;;;;;;5067232;28;20181;-83
2023/03/08 09:02:06;;;;;;;14.87;7.43;;;;;;;;;;5063118;28;20326;-83
2023/03/08 09:04:32;;;;;;;11.40;7.20;;;;;;;;;;5073758;28;20520;-83
2023/03/08 09:06:58;;;;;;;11.27;6.83;;;;;;;;;;5057040;28;20216;-81
2023/03/08 09:09:25;;;;;;;10.00;6.63;;;;;;;;;;5057879;28;20185;-82
2023/03/08 09:11:51;;;;;;;10.47;6.93;;;;;;;;;;5066991;28;20185;-83
2023/03/08 09:14:18;;;;;;;10.83;6.33;;;;;;;;;;5066553;28;20201;-84
2023/03/08 09:16:44;;;;;;;10.70;6.33;;;;;;;;;;5065165;28;20341;-82
2023/03/08 09:19:11;;;;;;;12.80;7.40;;;;;;;;;;5063990;28;20244;-83
2023/03/08 09:21:37;;;;;;;9.33;6.40;;;;;;;;;;5061949;28;20217;-83
2023/03/08 09:24:04;;;;;;;13.47;6.50;;;;;;;;;;5066619;28;22074;-85
2023/03/08 09:26:31;;;;;;;10.37;6.70;;;;;;;;;;5052713;28;20193;-83
2023/03/08 09:29:03;;;;;;;9.23;7.00;;;;;;;;;;5052394;28;20188;-82
2023/03/08 09:31:30;;;;;;;12.43;6.03;;;;;;;;;;5067066;28;20569;-83
2023/03/08 09:33:56;;;;;;;6.97;5.17;;;;;;;;;;5066042;28;20544;-83
2023/03/08 09:36:23;;;;;;;7.97;5.47;;;;;;;;;;5058471;28;20284;-83
2023/03/08 09:38:51;;;;;;;10.87;5.57;;;;;;;;;;5061597;28;20185;-83
2023/03/08 09:41:38;;;;;;;7.77;5.50;;;;;;;;;;5065342;28;20579;-83
2023/03/08 09:44:10;;;;;;;10.07;6.10;;;;;;;;;;5053921;28;20173;-83
2023/03/08 09:46:39;;;;;;;11.47;5.83;;;;;;;;;;5057474;28;20214;-83
2023/03/08 09:49:11;;;;;;;8.70;5.83;;;;;;;;;;5060885;28;20684;-83
2023/03/08 09:51:40;;;;;;;10.90;6.10;;;;;;;;;;5065145;28;20239;-83
2023/03/08 09:54:08;;;;;;;8.30;6.27;;;;;;;;;;5060869;28;20181;-83
2023/03/08 09:56:55;;;;;;;8.10;5.37;;;;;;;;;;5059615;28;20706;-82
2023/03/08 09:59:41;;;;;;;9.23;4.33;;;;;;;;;;5064406;28;20186;-83
2023/03/08 10:02:10;;;;;;;7.33;5.60;;;;;;;;;;5043635;28;20194;-83
2023/03/08 10:04:53;;;;;;;7.57;5.03;;;;;;;;;;5069849;28;20181;-83
2023/03/08 10:07:24;;;;;;;10.13;5.97;;;;;;;;;;5059658;28;20213;-83
2023/03/08 10:09:58;;;;;;;7.27;5.63;;;;;;;;;;5054966;28;20177;-83
2023/03/08 10:12:32;;;;;;;9.93;6.47;;;;;;;;;;5053366;28;20260;-83
2023/03/08 10:15:05;;;;;;;11.87;6.03;;;;;;;;;;5055635;28;20182;-82
2023/03/08 10:17:38;;;;;;;10.90;5.20;;;;;;;;;;5101980;28;20229;-83
2023/03/08 10:20:07;;;;;;;11.17;5.27;;;;;;;;;;5089453;28;20176;-84
2023/03/08 10:22:41;;;;;;;7.90;5.03;;;;;;;;;;5087826;28;20190;-83
2023/03/08 10:25:22;;;;;;;12.17;6.90;;;;;;;;;;5079729;28;20184;-84
2023/03/08 10:27:53;;;;;;;9.43;5.90;;;;;;;;;;5087300;28;20188;-82
2023/03/08 10:30:21;;;;;;;10.30;6.30;;;;;;;;;;5084330;28;20706;-83
2023/03/08 10:32:49;;;;;;;13.27;5.73;;;;;;;;;;5101007;28;20286;-83
2023/03/08 10:35:16;;;;;;;10.03;6.23;;;;;;;;;;5090537;28;20179;-84
2023/03/08 10:37:42;;;;;;;10.50;6.03;;;;;;;;;;5084712;28;20183;-83
2023/03/08 10:40:12;;;;;;;9.67;6.00;;;;;;;;;;5101856;28;20187;-83
2023/03/08 10:42:42;;;;;;;9.23;5.97;;;;;;;;;;5106565;28;20176;-84
2023/03/08 10:45:21;;;;;;;9.97;5.27;;;;;;;;;;5091894;28;20249;-82
2023/03/08 10:48:00;;;;;;;10.20;5.67;;;;;;;;;;5079066;28;20180;-84
2023/03/08 10:50:28;;;;;;;9.70;5.07;;;;;;;;;;5080951;28;20191;-83
2023/03/08 10:52:54;;;;;;;8.50;4.77;;;;;;;;;;5088204;28;20179;-84
2023/03/08 10:55:27;;;;;;;7.70;5.23;;;;;;;;;;5106663;28;20179;-84
2023/03/08 10:57:57;;;;;;;11.80;5.83;;;;;;;;;;5088385;28;20179;-84
2023/03/08 11:00:31;;;;;;;8.07;5.87;;;;;;;;;;5088167;28;20168;-83
2023/03/08 11:03:03;;;;;;;10.27;6.40;;;;;;;;;;5094567;28;20178;-83
2023/03/08 11:05:30;;;;;;;9.53;6.40;;;;;;;;;;5078215;28;20218;-84
2023/03/08 11:07:57;;;;;;;6.30;5.43;;;;;;;;;;5107165;28;20176;-83
2023/03/08 11:10:24;;;;;;;9.13;6.50;;;;;;;;;;5091087;28;20179;-83
2023/03/08 11:13:20;;;;;;;11.37;7.40;;;;;;;;;;5106294;28;20203;-83
2023/03/08 11:15:58;;;;;;;13.60;7.33;;;;;;;;;;5087389;28;20219;-82
2023/03/08 11:18:46;;;;;;;10.03;6.57;;;;;;;;;;5089793;28;20194;-83
2023/03/08 11:21:32;;;;;;;10.37;6.43;;;;;;;;;;5087082;28;20212;-83
2023/03/08 11:24:17;;;;;;;15.73;7.43;;;;;;;;;;5087753;28;20183;-83
2023/03/08 11:26:43;;;;;;;8.83;4.93;;;;;;;;;;5095204;28;20261;-83
2023/03/08 11:29:29;;;;;;;8.43;6.07;;;;;;;;;;5108284;28;20180;-83
2023/03/08 11:32:07;;;;;;;8.70;6.40;;;;;;;;;;5100303;28;20171;-83
2023/03/08 11:34:42;;;;;;;10.70;6.60;;;;;;;;;;5088993;28;20176;-83
2023/03/08 11:37:08;;;;;;;11.90;6.43;;;;;;;;;;5087898;28;20186;-84
2023/03/08 11:39:36;;;;;;;13.13;8.00;;;;;;;;;;5086357;28;20180;-83
2023/03/08 11:42:05;;;;;;;10.43;6.37;;;;;;;;;;5078604;28;20183;-83
2023/03/08 11:44:31;;;;;;;12.97;6.47;;;;;;;;;;5093091;28;20183;-83
2023/03/08 11:47:07;;;;;;;10.97;6.43;;;;;;;;;;5094534;28;20207;-83
2023/03/08 11:49:42;;;;;;;13.20;7.70;;;;;;;;;;5103745;28;20186;-83
2023/03/08 11:52:11;;;;;;;8.83;5.97;;;;;;;;;;5090997;28;20214;-83
2023/03/08 11:54:56;;;;;;;12.07;6.77;;;;;;;;;;5089718;28;20190;-83
2023/03/08 11:57:25;;;;;;;8.70;5.17;;;;;;;;;;5106849;28;20315;-83
2023/03/08 11:59:55;;;;;;;10.57;5.17;;;;;;;;;;5091133;28;20229;-82
2023/03/08 12:02:23;;;;;;;6.67;4.00;;;;;;;;;;5089915;28;20530;-83
2023/03/08 12:05:01;;;;;;;9.40;4.40;;;;;;;;;;5089528;28;20529;-83
2023/03/08 12:07:34;;;;;;;7.30;4.67;;;;;;;;;;5079473;28;20677;-83
2023/03/08 12:10:12;;;;;;;7.03;4.77;;;;;;;;;;5084451;28;20576;-83
2023/03/08 12:12:41;;;;;;;6.53;5.00;;;;;;;;;;5090535;28;20205;-83
2023/03/08 12:15:14;;;;;;;8.03;4.50;;;;;;;;;;5086545;28;20987;-82
2023/03/08 12:17:43;;;;;;;6.73;5.10;;;;;;;;;;5074298;28;20187;-83
2023/03/08 12:20:14;;;;;;;7.03;4.80;;;;;;;;;;5075430;28;20422;-83
2023/03/08 12:22:43;;;;;;;8.50;4.37;;;;;;;;;;5084530;28;20194;-84
2023/03/08 12:25:17;;;;;;;5.77;3.97;;;;;;;;;;5082953;28;20219;-83
2023/03/08 12:28:02;;;;;;;5.30;3.80;;;;;;;;;;5082691;28;20191;-83
2023/03/08 12:30:34;;;;;;;8.43;5.87;;;;;;;;;;5075932;28;20263;-83
2023/03/08 12:33:02;;;;;;;7.53;5.43;;;;;;;;;;5105065;28;20175;-83
2023/03/08 12:35:30;;;;;;;6.57;4.73;;;;;;;;;;5090377;28;20183;-81
2023/03/08 12:37:57;;;;;;;9.33;4.83;;;;;;;;;;5090058;28;20190;-83
2023/03/08 12:40:34;;;;;;;9.67;4.53;;;;;;;;;;5085229;28;20187;-83
2023/03/08 12:43:05;;;;;;;7.60;4.70;;;;;;;;;;5086771;28;20179;-83
2023/03/08 12:45:31;;;;;;;11.07;5.20;;;;;;;;;;5087017;28;20192;-83
2023/03/08 12:48:00;;;;;;;6.80;4.83;;;;;;;;;;5076556;28;20187;-83
2023/03/08 12:50:27;;;;;;;6.23;5.00;;;;;;;;;;5073781;28;20179;-83
2023/03/08 12:52:54;;;;;;;7.23;4.37;;;;;;;;;;5080024;28;20185;-83
2023/03/08 12:55:30;;;;;;;10.43;4.40;;;;;;;;;;5104673;28;20184;-83
2023/03/08 12:57:56;;;;;;;8.30;3.93;;;;;;;;;;5107740;28;20209;-82
2023/03/08 13:00:33;;;;;;;7.23;4.37;;;;;;;;;;5089122;28;20191;-83
2023/03/08 13:03:01;;;;;;;7.97;4.60;;;;;;;;;;5089985;28;20645;-83
2023/03/08 13:05:27;;;;;;;9.10;5.13;;;;;;;;;;5103518;28;20177;-82
2023/03/08 13:08:00;;;;;;;7.53;4.70;;;;;;;;;;5088675;28;20168;-83
2023/03/08 13:10:29;;;;;;;6.20;4.70;;;;;;;;;;5089786;28;20202;-83
2023/03/08 13:13:06;;;;;;;6.03;4.63;;;;;;;;;;5109203;28;20199;-83
2023/03/08 13:15:32;;;;;;;9.80;4.57;;;;;;;;;;5085201;28;20238;-83
2023/03/08 13:18:08;;;;;;;7.47;4.90;;;;;;;;;;5089698;28;20184;-83
2023/03/08 13:20:34;;;;;;;7.17;5.87;;;;;;;;;;5090308;28;20194;-83
2023/03/08 13:23:07;;;;;;;8.50;5.07;;;;;;;;;;5086511;28;20164;-83
2023/03/08 13:25:51;;;;;;;7.17;4.90;;;;;;;;;;5089791;28;20184;-84
2023/03/08 13:28:19;;;;;;;10.30;5.60;;;;;;;;;;5087218;28;20223;-83
2023/03/08 13:30:48;;;;;;;7.83;4.93;;;;;;;;;;5076263;28;20601;-84
2023/03/08 13:33:17;;;;;;;5.40;4.47;;;;;;;;;;5077404;28;20278;-85
2023/03/08 13:35:43;;;;;;;9.70;4.93;;;;;;;;;;5089074;28;20218;-84
2023/03/08 13:38:18;;;;;;;7.50;4.50;;;;;;;;;;5086480;28;20539;-84
2023/03/08 13:40:50;;;;;;;6.90;5.00;;;;;;;;;;5089710;28;20652;-84
2023/03/08 13:43:17;;;;;;;6.43;5.00;;;;;;;;;;5085723;28;20197;-84
2023/03/08 13:45:46;;;;;;;10.53;5.53;;;;;;;;;;5111082;28;20207;-84
2023/03/08 13:48:15;;;;;;;5.97;5.20;;;;;;;;;;5108683;28;20191;-83
2023/03/08 13:50:49;;;;;;;6.87;5.53;;;;;;;;;;5093114;28;20529;-84
2023/03/08 13:53:45;;;;;;;9.77;5.43;;;;;;;;;;5090180;28;20214;-83
2023/03/08 13:56:20;;;;;;;7.30;5.20;;;;;;;;;;5081051;28;20197;-84
2023/03/08 13:58:49;;;;;;;6.27;5.40;;;;;;;;;;5099456;28;20656;-85
2023/03/08 14:01:22;;;;;;;9.80;5.37;;;;;;;;;;5090812;28;20648;-84
2023/03/08 14:03:51;;;;;;;8.33;5.50;;;;;;;;;;5087881;28;21128;-84
2023/03/08 14:06:18;;;;;;;10.50;6.43;;;;;;;;;;5083768;28;20225;-84
2023/03/08 14:08:45;;;;;;;7.30;5.30;;;;;;;;;;5094324;28;20199;-84
2023/03/08 14:11:20;;;;;;;9.27;5.87;;;;;;;;;;5090792;28;20184;-84
2023/03/08 14:13:49;;;;;;;10.80;5.50;;;;;;;;;;5082630;28;20184;-84
2023/03/08 14:16:24;;;;;;;8.40;5.53;;;;;;;;;;5090357;28;20227;-83
2023/03/08 14:18:51;;;;;;;8.67;5.50;;;;;;;;;;5092422;28;20761;-83
2023/03/08 14:21:19;;;;;;;6.20;5.60;;;;;;;;;;5105570;28;20179;-83
2023/03/08 14:23:47;;;;;;;5.50;5.00;;;;;;;;;;5087727;28;20695;-83
2023/03/08 14:26:23;;;;;;;7.57;4.53;;;;;;;;;;5111084;28;20206;-83
2023/03/08 14:28:49;;;;;;;6.87;5.07;;;;;;;;;;5107462;28;20183;-84
2023/03/08 14:31:28;;;;;;;8.73;5.50;;;;;;;;;;5101515;28;20224;-83
2023/03/08 14:34:02;;;;;;;7.07;5.00;;;;;;;;;;5073070;28;20199;-82
2023/03/08 14:36:29;;;;;;;8.70;5.27;;;;;;;;;;5081518;28;20525;-84
2023/03/08 14:38:55;;;;;;;7.30;5.00;;;;;;;;;;5090182;28;20630;-83
2023/03/08 14:41:32;;;;;;;7.40;5.67;;;;;;;;;;5092136;28;20236;-83
2023/03/08 14:43:58;;;;;;;11.87;5.97;;;;;;;;;;5091904;28;20514;-84